sensor_id;sensor_type;location;lat;lon;timestamp;pressure;altitude;pressure_sealevel;temperature;humidity
14838;BME280;7510;59.296;18.106;2022-10-15T00:01:32;100346.22;;;21.17;56.80
14838;BME280;7510;59.296;18.106;2022-10-15T00:03:59;100361.41;;;21.15;56.71
14838;BME280;7510;59.296;18.106;2022-10-15T00:06:25;100353.66;;;21.17;56.52
14838;BME280;7510;59.296;18.106;2022-10-15T00:08:50;100355.75;;;21.20;56.03
14838;BME280;7510;59.296;18.106;2022-10-15T00:11:21;100352.97;;;20.76;57.78
14838;BME280;7510;59.296;18.106;2022-10-15T00:13:48;100348.81;;;20.65;58.17
14838;BME280;7510;59.296;18.106;2022-10-15T00:16:19;100354.47;;;20.33;58.98
14838;BME280;7510;59.296;18.106;2022-10-15T00:18:45;100350.19;;;20.41;58.45
14838;BME280;7510;59.296;18.106;2022-10-15T00:21:13;100345.66;;;20.58;57.79
14838;BME280;7510;59.296;18.106;2022-10-15T00:23:39;100347.03;;;20.34;58.76
14838;BME280;7510;59.296;18.106;2022-10-15T00:26:19;100354.03;;;20.53;58.35
14838;BME280;7510;59.296;18.106;2022-10-15T00:28:45;100350.91;;;20.46;58.33
14838;BME280;7510;59.296;18.106;2022-10-15T00:31:14;100347.63;;;20.44;58.41
14838;BME280;7510;59.296;18.106;2022-10-15T00:33:41;100339.75;;;20.65;57.87
14838;BME280;7510;59.296;18.106;2022-10-15T00:36:15;100341.69;;;20.15;59.55
14838;BME280;7510;59.296;18.106;2022-10-15T00:38:42;100343.38;;;19.85;60.95
14838;BME280;7510;59.296;18.106;2022-10-15T00:41:13;100335.16;;;20.11;59.67
14838;BME280;7510;59.296;18.106;2022-10-15T00:46:31;100343.88;;;20.40;58.70
14838;BME280;7510;59.296;18.106;2022-10-15T00:51:31;100345.91;;;19.95;60.40
14838;BME280;7510;59.296;18.106;2022-10-15T00:53:57;100347.31;;;19.79;60.90
14838;BME280;7510;59.296;18.106;2022-10-15T00:56:25;100327.94;;;20.29;58.96
14838;BME280;7510;59.296;18.106;2022-10-15T00:58:52;100330.44;;;20.52;58.24
14838;BME280;7510;59.296;18.106;2022-10-15T01:01:19;100334.72;;;19.78;60.83
14838;BME280;7510;59.296;18.106;2022-10-15T01:03:45;100343.41;;;19.53;61.34
14838;BME280;7510;59.296;18.106;2022-10-15T01:06:11;100336.13;;;19.75;60.37
14838;BME280;7510;59.296;18.106;2022-10-15T01:08:36;100329.47;;;19.95;60.13
14838;BME280;7510;59.296;18.106;2022-10-15T01:13:37;100319.69;;;19.89;60.18
14838;BME280;7510;59.296;18.106;2022-10-15T01:16:15;100320.06;;;19.69;60.76
14838;BME280;7510;59.296;18.106;2022-10-15T01:18:56;100318.06;;;19.88;59.36
14838;BME280;7510;59.296;18.106;2022-10-15T01:21:43;100319.81;;;20.10;58.87
14838;BME280;7510;59.296;18.106;2022-10-15T01:35:48;100312.63;;;20.14;57.85
14838;BME280;7510;59.296;18.106;2022-10-15T01:39:35;100311.78;;;19.74;58.77
14838;BME280;7510;59.296;18.106;2022-10-15T01:46:54;100302.22;;;19.85;58.27
14838;BME280;7510;59.296;18.106;2022-10-15T01:49:27;100292.50;;;20.06;57.43
14838;BME280;7510;59.296;18.106;2022-10-15T01:51:57;100291.00;;;19.41;59.63
14838;BME280;7510;59.296;18.106;2022-10-15T01:54:26;100283.88;;;19.08;60.72
14838;BME280;7510;59.296;18.106;2022-10-15T01:56:53;100287.34;;;19.32;59.61
14838;BME280;7510;59.296;18.106;2022-10-15T01:59:24;100268.25;;;19.27;59.93
14838;BME280;7510;59.296;18.106;2022-10-15T02:01:52;100275.94;;;19.25;60.33
14838;BME280;7510;59.296;18.106;2022-10-15T02:04:35;100275.41;;;19.68;58.40
14838;BME280;7510;59.296;18.106;2022-10-15T02:07:15;100273.44;;;19.28;60.05
14838;BME280;7510;59.296;18.106;2022-10-15T02:20:29;100252.31;;;19.42;58.21
14838;BME280;7510;59.296;18.106;2022-10-15T02:23:40;100272.56;;;19.60;57.96
14838;BME280;7510;59.296;18.106;2022-10-15T02:25:58;100255.66;;;19.26;59.04
14838;BME280;7510;59.296;18.106;2022-10-15T02:28:24;100257.09;;;19.05;60.01
14838;BME280;7510;59.296;18.106;2022-10-15T02:30:52;100266.94;;;19.06;60.18
14838;BME280;7510;59.296;18.106;2022-10-15T02:33:19;100257.91;;;19.37;59.15
14838;BME280;7510;59.296;18.106;2022-10-15T02:35:46;100254.47;;;19.59;58.23
14838;BME280;7510;59.296;18.106;2022-10-15T02:38:15;100247.56;;;19.48;58.26
14838;BME280;7510;59.296;18.106;2022-10-15T02:40:42;100254.97;;;19.34;58.44
14838;BME280;7510;59.296;18.106;2022-10-15T02:43:10;100236.00;;;19.37;58.82
14838;BME280;7510;59.296;18.106;2022-10-15T02:45:37;100243.91;;;19.66;57.65
14838;BME280;7510;59.296;18.106;2022-10-15T02:48:03;100256.28;;;19.23;58.88
14838;BME280;7510;59.296;18.106;2022-10-15T02:50:28;100249.78;;;19.32;59.08
14838;BME280;7510;59.296;18.106;2022-10-15T02:52:54;100253.03;;;20.15;56.72
14838;BME280;7510;59.296;18.106;2022-10-15T02:55:19;100253.78;;;19.94;57.22
14838;BME280;7510;59.296;18.106;2022-10-15T02:57:45;100243.84;;;20.33;56.15
14838;BME280;7510;59.296;18.106;2022-10-15T03:00:11;100244.13;;;20.09;56.30
14838;BME280;7510;59.296;18.106;2022-10-15T03:02:36;100230.13;;;19.71;57.66
14838;BME280;7510;59.296;18.106;2022-10-15T03:05:02;100230.50;;;19.91;57.01
14838;BME280;7510;59.296;18.106;2022-10-15T03:07:27;100230.41;;;19.56;58.00
14838;BME280;7510;59.296;18.106;2022-10-15T03:09:53;100234.59;;;19.08;59.09
14838;BME280;7510;59.296;18.106;2022-10-15T03:12:18;100230.06;;;19.17;59.18
14838;BME280;7510;59.296;18.106;2022-10-15T03:14:50;100223.88;;;19.12;59.61
14838;BME280;7510;59.296;18.106;2022-10-15T03:17:16;100208.59;;;19.37;58.81
14838;BME280;7510;59.296;18.106;2022-10-15T03:19:41;100217.34;;;19.53;58.40
14838;BME280;7510;59.296;18.106;2022-10-15T03:22:06;100214.25;;;19.81;57.51
14838;BME280;7510;59.296;18.106;2022-10-15T03:24:32;100212.84;;;19.70;57.89
14838;BME280;7510;59.296;18.106;2022-10-15T03:26:57;100219.56;;;19.51;58.93
14838;BME280;7510;59.296;18.106;2022-10-15T03:29:23;100227.06;;;19.18;59.59
14838;BME280;7510;59.296;18.106;2022-10-15T03:31:48;100230.47;;;19.11;60.05
14838;BME280;7510;59.296;18.106;2022-10-15T03:34:14;100223.78;;;19.17;60.04
14838;BME280;7510;59.296;18.106;2022-10-15T03:36:40;100233.34;;;19.32;59.97
14838;BME280;7510;59.296;18.106;2022-10-15T03:39:05;100207.56;;;19.20;59.75
14838;BME280;7510;59.296;18.106;2022-10-15T03:41:32;100213.88;;;19.61;58.62
14838;BME280;7510;59.296;18.106;2022-10-15T03:44:01;100215.59;;;19.57;58.90
14838;BME280;7510;59.296;18.106;2022-10-15T03:46:27;100222.00;;;19.79;58.27
14838;BME280;7510;59.296;18.106;2022-10-15T03:48:53;100218.97;;;19.54;58.91
14838;BME280;7510;59.296;18.106;2022-10-15T03:51:18;100209.00;;;19.58;58.96
14838;BME280;7510;59.296;18.106;2022-10-15T03:53:43;100224.44;;;19.54;59.74
14838;BME280;7510;59.296;18.106;2022-10-15T03:56:09;100216.31;;;19.49;59.87
14838;BME280;7510;59.296;18.106;2022-10-15T03:58:37;100210.31;;;19.47;59.94
14838;BME280;7510;59.296;18.106;2022-10-15T04:01:10;100201.09;;;19.43;60.07
14838;BME280;7510;59.296;18.106;2022-10-15T04:03:38;100195.06;;;19.68;59.49
14838;BME280;7510;59.296;18.106;2022-10-15T04:06:04;100189.06;;;19.93;59.00
14838;BME280;7510;59.296;18.106;2022-10-15T04:08:30;100185.41;;;19.97;58.72
14838;BME280;7510;59.296;18.106;2022-10-15T04:10:55;100188.22;;;19.92;59.03
14838;BME280;7510;59.296;18.106;2022-10-15T04:13:21;100183.47;;;19.98;58.79
14838;BME280;7510;59.296;18.106;2022-10-15T04:15:46;100182.63;;;20.10;58.32
14838;BME280;7510;59.296;18.106;2022-10-15T04:18:12;100177.91;;;19.76;59.94
14838;BME280;7510;59.296;18.106;2022-10-15T04:20:38;100158.97;;;20.14;58.49
14838;BME280;7510;59.296;18.106;2022-10-15T04:23:03;100171.56;;;20.59;57.27
14838;BME280;7510;59.296;18.106;2022-10-15T04:25:28;100163.13;;;20.34;58.02
14838;BME280;7510;59.296;18.106;2022-10-15T04:27:54;100164.53;;;19.61;60.51
14838;BME280;7510;59.296;18.106;2022-10-15T04:30:20;100168.75;;;19.94;59.97
14838;BME280;7510;59.296;18.106;2022-10-15T04:32:45;100175.38;;;20.28;59.11
14838;BME280;7510;59.296;18.106;2022-10-15T04:35:11;100165.59;;;20.35;58.67
14838;BME280;7510;59.296;18.106;2022-10-15T04:37:36;100162.47;;;20.50;58.12
14838;BME280;7510;59.296;18.106;2022-10-15T04:40:02;100157.16;;;20.10;59.34
14838;BME280;7510;59.296;18.106;2022-10-15T04:42:29;100168.81;;;20.59;58.42
14838;BME280;7510;59.296;18.106;2022-10-15T04:44:55;100152.59;;;20.27;59.93
14838;BME280;7510;59.296;18.106;2022-10-15T04:47:21;100145.19;;;19.93;61.34
14838;BME280;7510;59.296;18.106;2022-10-15T04:49:46;100153.25;;;20.11;60.87
14838;BME280;7510;59.296;18.106;2022-10-15T04:52:12;100155.47;;;20.44;59.45
14838;BME280;7510;59.296;18.106;2022-10-15T04:54:37;100148.44;;;19.95;61.85
14838;BME280;7510;59.296;18.106;2022-10-15T04:57:03;100155.28;;;20.19;61.18
14838;BME280;7510;59.296;18.106;2022-10-15T04:59:29;100156.84;;;20.33;60.61
14838;BME280;7510;59.296;18.106;2022-10-15T05:01:55;100149.59;;;20.59;60.58
14838;BME280;7510;59.296;18.106;2022-10-15T05:04:20;100153.59;;;20.75;59.83
14838;BME280;7510;59.296;18.106;2022-10-15T05:06:45;100150.16;;;20.70;59.61
14838;BME280;7510;59.296;18.106;2022-10-15T05:09:11;100152.50;;;20.54;60.25
14838;BME280;7510;59.296;18.106;2022-10-15T05:11:37;100133.88;;;20.73;60.31
14838;BME280;7510;59.296;18.106;2022-10-15T05:14:03;100131.38;;;20.85;59.68
14838;BME280;7510;59.296;18.106;2022-10-15T05:16:29;100133.63;;;20.83;59.54
14838;BME280;7510;59.296;18.106;2022-10-15T05:19:00;100131.09;;;20.95;59.69
14838;BME280;7510;59.296;18.106;2022-10-15T05:21:27;100117.59;;;21.07;58.98
14838;BME280;7510;59.296;18.106;2022-10-15T05:23:52;100115.41;;;20.95;60.15
14838;BME280;7510;59.296;18.106;2022-10-15T05:26:21;100113.53;;;21.04;59.34
14838;BME280;7510;59.296;18.106;2022-10-15T05:28:48;100119.75;;;20.88;60.06
14838;BME280;7510;59.296;18.106;2022-10-15T05:31:19;100119.63;;;20.71;60.90
14838;BME280;7510;59.296;18.106;2022-10-15T05:33:49;100107.78;;;20.84;60.91
14838;BME280;7510;59.296;18.106;2022-10-15T05:38:47;100117.03;;;21.27;59.49
14838;BME280;7510;59.296;18.106;2022-10-15T05:41:14;100116.94;;;21.10;60.09
14838;BME280;7510;59.296;18.106;2022-10-15T05:43:39;100120.16;;;20.51;62.24
14838;BME280;7510;59.296;18.106;2022-10-15T05:46:05;100105.53;;;20.86;61.68
14838;BME280;7510;59.296;18.106;2022-10-15T05:48:30;100109.53;;;21.19;60.18
14838;BME280;7510;59.296;18.106;2022-10-15T05:51:01;100105.94;;;21.10;60.49
14838;BME280;7510;59.296;18.106;2022-10-15T05:53:26;100116.31;;;21.13;60.63
14838;BME280;7510;59.296;18.106;2022-10-15T05:55:52;100111.88;;;21.51;59.77
14838;BME280;7510;59.296;18.106;2022-10-15T05:58:18;100109.69;;;21.70;59.82
14838;BME280;7510;59.296;18.106;2022-10-15T06:00:44;100100.91;;;20.73;62.39
14838;BME280;7510;59.296;18.106;2022-10-15T06:03:11;100110.06;;;20.38;64.67
14838;BME280;7510;59.296;18.106;2022-10-15T06:05:37;100112.97;;;20.64;63.93
14838;BME280;7510;59.296;18.106;2022-10-15T06:08:03;100105.16;;;20.79;64.05
14838;BME280;7510;59.296;18.106;2022-10-15T06:10:28;100111.16;;;21.20;62.85
14838;BME280;7510;59.296;18.106;2022-10-15T06:12:54;100103.06;;;20.54;64.72
14838;BME280;7510;59.296;18.106;2022-10-15T06:15:20;100102.84;;;21.03;63.23
14838;BME280;7510;59.296;18.106;2022-10-15T06:17:45;100094.84;;;20.54;65.26
14838;BME280;7510;59.296;18.106;2022-10-15T06:20:11;100105.31;;;20.08;66.97
14838;BME280;7510;59.296;18.106;2022-10-15T06:22:37;100099.56;;;20.62;65.13
14838;BME280;7510;59.296;18.106;2022-10-15T06:25:03;100100.50;;;20.88;64.60
14838;BME280;7510;59.296;18.106;2022-10-15T06:27:28;100104.94;;;21.45;62.73
14838;BME280;7510;59.296;18.106;2022-10-15T06:29:54;100094.59;;;21.50;61.77
14838;BME280;7510;59.296;18.106;2022-10-15T06:32:20;100070.97;;;21.49;61.13
14838;BME280;7510;59.296;18.106;2022-10-15T06:34:45;100093.53;;;21.77;60.60
14838;BME280;7510;59.296;18.106;2022-10-15T06:37:11;100096.88;;;21.01;63.51
14838;BME280;7510;59.296;18.106;2022-10-15T06:39:36;100095.38;;;21.34;62.29
14838;BME280;7510;59.296;18.106;2022-10-15T06:42:02;100088.66;;;21.90;60.35
14838;BME280;7510;59.296;18.106;2022-10-15T06:44:27;100099.69;;;21.90;60.14
14838;BME280;7510;59.296;18.106;2022-10-15T06:46:52;100102.56;;;21.60;61.51
14838;BME280;7510;59.296;18.106;2022-10-15T06:49:18;100108.41;;;21.76;60.50
14838;BME280;7510;59.296;18.106;2022-10-15T06:51:43;100103.56;;;21.17;63.56
14838;BME280;7510;59.296;18.106;2022-10-15T06:54:09;100089.63;;;21.61;61.41
14838;BME280;7510;59.296;18.106;2022-10-15T06:56:34;100096.34;;;21.46;62.05
14838;BME280;7510;59.296;18.106;2022-10-15T06:59:00;100104.28;;;21.39;63.14
14838;BME280;7510;59.296;18.106;2022-10-15T07:01:25;100097.63;;;21.32;62.83
14838;BME280;7510;59.296;18.106;2022-10-15T07:03:51;100088.91;;;21.38;62.82
14838;BME280;7510;59.296;18.106;2022-10-15T07:06:17;100085.19;;;20.13;67.29
14838;BME280;7510;59.296;18.106;2022-10-15T07:08:42;100092.56;;;21.73;61.84
14838;BME280;7510;59.296;18.106;2022-10-15T07:11:10;100092.88;;;21.07;64.13
14838;BME280;7510;59.296;18.106;2022-10-15T07:13:36;100076.03;;;21.89;61.00
14838;BME280;7510;59.296;18.106;2022-10-15T07:16:07;100090.78;;;22.02;60.73
14838;BME280;7510;59.296;18.106;2022-10-15T07:18:34;100096.34;;;21.38;62.51
14838;BME280;7510;59.296;18.106;2022-10-15T07:21:01;100092.88;;;21.63;62.30
14838;BME280;7510;59.296;18.106;2022-10-15T07:23:27;100087.53;;;22.25;59.96
14838;BME280;7510;59.296;18.106;2022-10-15T07:25:55;100098.81;;;21.48;62.43
14838;BME280;7510;59.296;18.106;2022-10-15T07:28:21;100093.69;;;21.63;61.76
14838;BME280;7510;59.296;18.106;2022-10-15T07:30:46;100098.34;;;21.63;61.98
14838;BME280;7510;59.296;18.106;2022-10-15T07:33:12;100109.91;;;21.26;64.01
14838;BME280;7510;59.296;18.106;2022-10-15T07:35:37;100094.75;;;20.98;65.18
14838;BME280;7510;59.296;18.106;2022-10-15T07:38:03;100096.59;;;22.26;61.07
14838;BME280;7510;59.296;18.106;2022-10-15T07:40:29;100093.84;;;22.00;60.73
14838;BME280;7510;59.296;18.106;2022-10-15T07:42:56;100091.50;;;21.52;62.33
14838;BME280;7510;59.296;18.106;2022-10-15T07:45:22;100102.47;;;21.35;62.99
14838;BME280;7510;59.296;18.106;2022-10-15T07:47:48;100073.88;;;21.53;62.17
14838;BME280;7510;59.296;18.106;2022-10-15T07:50:14;100094.25;;;21.35;62.80
14838;BME280;7510;59.296;18.106;2022-10-15T07:52:40;100091.03;;;22.68;58.55
14838;BME280;7510;59.296;18.106;2022-10-15T07:55:06;100097.09;;;22.02;60.77
14838;BME280;7510;59.296;18.106;2022-10-15T07:57:31;100104.53;;;21.93;61.18
14838;BME280;7510;59.296;18.106;2022-10-15T07:59:56;100101.97;;;21.88;61.62
14838;BME280;7510;59.296;18.106;2022-10-15T08:02:22;100101.94;;;22.22;60.35
14838;BME280;7510;59.296;18.106;2022-10-15T08:04:48;100104.84;;;21.19;62.99
14838;BME280;7510;59.296;18.106;2022-10-15T08:07:14;100098.03;;;20.78;64.31
14838;BME280;7510;59.296;18.106;2022-10-15T08:09:39;100105.19;;;21.74;61.82
14838;BME280;7510;59.296;18.106;2022-10-15T08:12:05;100092.81;;;20.98;63.60
14838;BME280;7510;59.296;18.106;2022-10-15T08:14:32;100105.53;;;20.86;65.09
14838;BME280;7510;59.296;18.106;2022-10-15T08:16:58;100100.38;;;21.32;63.24
14838;BME280;7510;59.296;18.106;2022-10-15T08:19:23;100092.75;;;22.81;58.07
14838;BME280;7510;59.296;18.106;2022-10-15T08:21:49;100099.44;;;22.80;57.85
14838;BME280;7510;59.296;18.106;2022-10-15T08:24:15;100099.38;;;22.34;58.72
14838;BME280;7510;59.296;18.106;2022-10-15T08:26:41;100104.03;;;21.58;62.06
14838;BME280;7510;59.296;18.106;2022-10-15T08:29:06;100107.13;;;21.82;60.83
14838;BME280;7510;59.296;18.106;2022-10-15T08:31:32;100096.13;;;22.15;59.73
14838;BME280;7510;59.296;18.106;2022-10-15T08:34:01;100093.69;;;22.48;58.78
14838;BME280;7510;59.296;18.106;2022-10-15T08:36:27;100099.50;;;21.70;61.24
14838;BME280;7510;59.296;18.106;2022-10-15T08:38:52;100107.53;;;21.41;62.69
14838;BME280;7510;59.296;18.106;2022-10-15T08:43:55;100108.59;;;21.32;62.42
14838;BME280;7510;59.296;18.106;2022-10-15T08:46:34;100115.19;;;21.70;61.71
14838;BME280;7510;59.296;18.106;2022-10-15T08:49:01;100105.47;;;22.65;58.54
14838;BME280;7510;59.296;18.106;2022-10-15T08:51:33;100098.59;;;22.88;57.24
14838;BME280;7510;59.296;18.106;2022-10-15T08:54:03;100115.84;;;22.51;58.15
14838;BME280;7510;59.296;18.106;2022-10-15T08:56:36;100113.44;;;21.82;60.40
14838;BME280;7510;59.296;18.106;2022-10-15T08:59:11;100108.09;;;21.21;62.71
14838;BME280;7510;59.296;18.106;2022-10-15T09:01:46;100101.00;;;22.35;59.67
14838;BME280;7510;59.296;18.106;2022-10-15T09:07:13;100104.19;;;22.20;59.40
14838;BME280;7510;59.296;18.106;2022-10-15T09:12:47;100108.56;;;22.64;57.98
14838;BME280;7510;59.296;18.106;2022-10-15T09:15:17;100107.13;;;22.15;59.17
14838;BME280;7510;59.296;18.106;2022-10-15T09:17:45;100107.78;;;22.46;58.16
14838;BME280;7510;59.296;18.106;2022-10-15T09:20:34;100109.94;;;22.86;56.98
14838;BME280;7510;59.296;18.106;2022-10-15T09:23:00;100111.66;;;22.45;58.18
14838;BME280;7510;59.296;18.106;2022-10-15T09:25:31;100110.72;;;22.33;58.26
14838;BME280;7510;59.296;18.106;2022-10-15T09:28:09;100109.41;;;22.47;57.69
14838;BME280;7510;59.296;18.106;2022-10-15T09:30:47;100108.28;;;22.40;58.21
14838;BME280;7510;59.296;18.106;2022-10-15T09:36:31;100110.84;;;22.02;60.10
14838;BME280;7510;59.296;18.106;2022-10-15T09:39:42;100097.06;;;23.07;56.63
14838;BME280;7510;59.296;18.106;2022-10-15T09:42:31;100097.03;;;22.70;57.78
14838;BME280;7510;59.296;18.106;2022-10-15T09:45:04;100109.16;;;22.77;58.00
14838;BME280;7510;59.296;18.106;2022-10-15T09:47:33;100105.66;;;22.18;59.39
14838;BME280;7510;59.296;18.106;2022-10-15T09:49:59;100103.56;;;22.40;59.03
14838;BME280;7510;59.296;18.106;2022-10-15T09:55:46;100106.69;;;21.41;61.24
14838;BME280;7510;59.296;18.106;2022-10-15T09:58:27;100106.66;;;22.47;58.73
14838;BME280;7510;59.296;18.106;2022-10-15T10:01:01;100102.03;;;22.76;57.22
14838;BME280;7510;59.296;18.106;2022-10-15T10:03:29;100110.53;;;23.46;55.49
14838;BME280;7510;59.296;18.106;2022-10-15T10:06:11;100116.53;;;22.48;57.86
14838;BME280;7510;59.296;18.106;2022-10-15T10:08:57;100111.03;;;21.97;60.18
14838;BME280;7510;59.296;18.106;2022-10-15T10:11:25;100100.66;;;21.94;59.19
14838;BME280;7510;59.296;18.106;2022-10-15T10:13:54;100094.50;;;22.06;59.66
14838;BME280;7510;59.296;18.106;2022-10-15T10:16:22;100105.34;;;21.77;59.94
14838;BME280;7510;59.296;18.106;2022-10-15T10:19:12;100105.47;;;21.64;60.88
14838;BME280;7510;59.296;18.106;2022-10-15T10:21:38;100111.03;;;22.48;57.75
14838;BME280;7510;59.296;18.106;2022-10-15T10:24:18;100112.50;;;23.00;56.37
14838;BME280;7510;59.296;18.106;2022-10-15T10:26:45;100103.56;;;23.03;56.02
14838;BME280;7510;59.296;18.106;2022-10-15T10:29:17;100096.53;;;20.94;62.18
14838;BME280;7510;59.296;18.106;2022-10-15T10:31:44;100108.47;;;22.35;58.97
14838;BME280;7510;59.296;18.106;2022-10-15T10:34:15;100108.00;;;21.52;61.32
14838;BME280;7510;59.296;18.106;2022-10-15T10:36:41;100105.50;;;21.81;60.38
14838;BME280;7510;59.296;18.106;2022-10-15T10:42:03;100104.88;;;22.17;59.20
14838;BME280;7510;59.296;18.106;2022-10-15T10:44:34;100097.94;;;22.91;57.03
14838;BME280;7510;59.296;18.106;2022-10-15T10:49:43;100097.09;;;21.77;60.32
14838;BME280;7510;59.296;18.106;2022-10-15T10:52:34;100097.84;;;21.52;60.77
14838;BME280;7510;59.296;18.106;2022-10-15T10:55:15;100103.44;;;22.03;59.94
14838;BME280;7510;59.296;18.106;2022-10-15T10:57:54;100100.81;;;22.40;58.17
14838;BME280;7510;59.296;18.106;2022-10-15T11:00:27;100101.00;;;22.18;59.18
14838;BME280;7510;59.296;18.106;2022-10-15T11:02:55;100098.53;;;21.66;60.45
14838;BME280;7510;59.296;18.106;2022-10-15T11:05:25;100105.97;;;22.25;59.23
14838;BME280;7510;59.296;18.106;2022-10-15T11:10:23;100103.88;;;22.30;59.12
14838;BME280;7510;59.296;18.106;2022-10-15T11:18:13;100097.72;;;21.99;59.78
14838;BME280;7510;59.296;18.106;2022-10-15T11:20:47;100091.03;;;20.94;63.46
14838;BME280;7510;59.296;18.106;2022-10-15T11:50:20;100074.63;;;21.19;64.18
14838;BME280;7510;59.296;18.106;2022-10-15T11:53:16;100079.63;;;21.98;61.21
14838;BME280;7510;59.296;18.106;2022-10-15T11:58:33;100073.78;;;21.91;60.75
14838;BME280;7510;59.296;18.106;2022-10-15T12:01:05;100072.00;;;21.95;61.30
14838;BME280;7510;59.296;18.106;2022-10-15T12:03:38;100070.88;;;21.96;60.82
14838;BME280;7510;59.296;18.106;2022-10-15T12:06:14;100071.88;;;21.19;64.63
14838;BME280;7510;59.296;18.106;2022-10-15T12:08:41;100072.50;;;21.89;62.50
14838;BME280;7510;59.296;18.106;2022-10-15T12:14:37;100067.03;;;21.25;65.39
14838;BME280;7510;59.296;18.106;2022-10-15T12:17:13;100058.88;;;22.26;61.74
14838;BME280;7510;59.296;18.106;2022-10-15T12:19:48;100057.59;;;21.90;62.71
14838;BME280;7510;59.296;18.106;2022-10-15T12:22:38;100061.84;;;20.76;67.62
14838;BME280;7510;59.296;18.106;2022-10-15T12:25:05;100063.41;;;21.72;63.96
14838;BME280;7510;59.296;18.106;2022-10-15T12:27:33;100060.13;;;21.53;65.37
14838;BME280;7510;59.296;18.106;2022-10-15T12:32:30;100060.72;;;21.16;65.91
14838;BME280;7510;59.296;18.106;2022-10-15T12:35:03;100068.56;;;21.48;65.49
14838;BME280;7510;59.296;18.106;2022-10-15T12:37:33;100054.81;;;20.62;68.45
14838;BME280;7510;59.296;18.106;2022-10-15T12:42:55;100058.78;;;20.78;67.69
14838;BME280;7510;59.296;18.106;2022-10-15T12:45:24;100065.44;;;21.41;65.43
14838;BME280;7510;59.296;18.106;2022-10-15T12:50:28;100064.59;;;20.76;68.27
14838;BME280;7510;59.296;18.106;2022-10-15T12:55:42;100048.03;;;20.98;66.31
14838;BME280;7510;59.296;18.106;2022-10-15T12:58:34;100047.25;;;21.79;64.19
14838;BME280;7510;59.296;18.106;2022-10-15T13:01:27;100046.22;;;21.49;64.88
14838;BME280;7510;59.296;18.106;2022-10-15T13:03:54;100046.81;;;21.21;65.60
14838;BME280;7510;59.296;18.106;2022-10-15T13:11:50;100051.03;;;21.35;65.66
14838;BME280;7510;59.296;18.106;2022-10-15T13:14:42;100061.59;;;20.86;67.94
14838;BME280;7510;59.296;18.106;2022-10-15T13:17:17;100048.44;;;21.22;66.62
14838;BME280;7510;59.296;18.106;2022-10-15T13:20:01;100049.97;;;21.53;65.14
14838;BME280;7510;59.296;18.106;2022-10-15T13:22:30;100050.19;;;21.18;66.17
14838;BME280;7510;59.296;18.106;2022-10-15T13:24:56;100047.75;;;21.08;67.01
14838;BME280;7510;59.296;18.106;2022-10-15T13:29:54;100043.81;;;20.31;70.09
14838;BME280;7510;59.296;18.106;2022-10-15T13:32:20;100043.16;;;21.51;65.66
14838;BME280;7510;59.296;18.106;2022-10-15T13:34:46;100048.53;;;21.89;63.33
14838;BME280;7510;59.296;18.106;2022-10-15T13:37:18;100050.97;;;21.01;66.96
14838;BME280;7510;59.296;18.106;2022-10-15T13:39:44;100047.09;;;20.72;68.72
14838;BME280;7510;59.296;18.106;2022-10-15T13:42:22;100050.16;;;21.74;64.44
14838;BME280;7510;59.296;18.106;2022-10-15T13:45:01;100047.84;;;21.42;64.73
14838;BME280;7510;59.296;18.106;2022-10-15T13:47:36;100055.00;;;21.93;63.44
14838;BME280;7510;59.296;18.106;2022-10-15T13:55:46;100047.59;;;21.69;65.14
14838;BME280;7510;59.296;18.106;2022-10-15T13:58:33;100049.97;;;21.53;65.05
14838;BME280;7510;59.296;18.106;2022-10-15T14:00:59;100050.81;;;21.87;63.78
14838;BME280;7510;59.296;18.106;2022-10-15T14:03:32;100048.88;;;21.96;63.91
14838;BME280;7510;59.296;18.106;2022-10-15T14:06:19;100059.22;;;21.01;67.54
14838;BME280;7510;59.296;18.106;2022-10-15T14:08:48;100050.78;;;20.98;67.21
14838;BME280;7510;59.296;18.106;2022-10-15T14:11:14;100047.41;;;21.01;67.41
14838;BME280;7510;59.296;18.106;2022-10-15T14:13:55;100049.53;;;21.77;65.10
14838;BME280;7510;59.296;18.106;2022-10-15T14:17:00;100046.50;;;21.31;66.94
14838;BME280;7510;59.296;18.106;2022-10-15T14:19:20;100052.81;;;21.23;66.62
14838;BME280;7510;59.296;18.106;2022-10-15T14:21:51;100049.13;;;21.36;66.85
14838;BME280;7510;59.296;18.106;2022-10-15T14:24:21;100051.88;;;21.36;66.77
14838;BME280;7510;59.296;18.106;2022-10-15T14:26:48;100051.88;;;21.44;66.82
14838;BME280;7510;59.296;18.106;2022-10-15T14:29:41;100056.16;;;21.92;64.83
14838;BME280;7510;59.296;18.106;2022-10-15T14:32:29;100052.53;;;21.50;66.14
14838;BME280;7510;59.296;18.106;2022-10-15T14:34:57;100047.19;;;21.45;66.64
14838;BME280;7510;59.296;18.106;2022-10-15T14:42:43;100057.91;;;21.72;65.47
14838;BME280;7510;59.296;18.106;2022-10-15T14:45:12;100060.91;;;21.36;65.98
14838;BME280;7510;59.296;18.106;2022-10-15T14:47:38;100060.00;;;22.17;64.10
14838;BME280;7510;59.296;18.106;2022-10-15T14:50:05;100049.00;;;22.34;62.64
14838;BME280;7510;59.296;18.106;2022-10-15T14:52:31;100066.34;;;22.17;63.33
14838;BME280;7510;59.296;18.106;2022-10-15T14:55:05;100052.50;;;22.60;61.66
14838;BME280;7510;59.296;18.106;2022-10-15T14:57:37;100048.66;;;21.42;65.47
14838;BME280;7510;59.296;18.106;2022-10-15T15:00:54;100059.50;;;22.23;63.06
14838;BME280;7510;59.296;18.106;2022-10-15T15:02:55;100068.28;;;22.00;63.78
14838;BME280;7510;59.296;18.106;2022-10-15T15:05:26;100062.69;;;21.41;66.01
14838;BME280;7510;59.296;18.106;2022-10-15T15:07:53;100052.41;;;22.39;62.40
14838;BME280;7510;59.296;18.106;2022-10-15T15:10:19;100068.28;;;22.08;63.43
14838;BME280;7510;59.296;18.106;2022-10-15T15:12:50;100059.22;;;22.16;63.10